Time;durP1;ratioP1;P1;durP2;ratioP2;P2;SDS_P1;SDS_P2;PMS_P1;PMS_P2;Temp;Humidity;BMP_temperature;BMP_pressure;BME280_temperature;BME280_humidity;BME280_pressure;Samples;Min_cycle;Max_cycle;Signal;HPM_P1;HPM_P2
2022/04/19 00:00:41;;;;;;;0.20;0.20;;;7.90;99.90;;;7.35;90.29;99732.25;4968032;28;20217;-73
2022/04/19 00:03:12;;;;;;;0.30;0.30;;;7.80;99.90;;;7.29;90.45;99726.91;4972522;28;20205;-74
2022/04/19 00:05:41;;;;;;;0.20;0.20;;;7.80;99.90;;;7.16;90.87;99722.41;4964822;28;20205;-74
2022/04/19 00:08:11;;;;;;;0.30;0.30;;;7.40;99.90;;;6.81;91.64;99707.09;4973059;28;20204;-75
2022/04/19 00:10:40;;;;;;;0.30;0.30;;;7.30;99.90;;;6.97;92.22;99737.06;4949972;28;20217;-75
2022/04/19 00:13:11;;;;;;;0.20;0.20;;;7.30;99.90;;;7.02;91.59;99752.03;4970836;28;20209;-75
2022/04/19 00:15:39;;;;;;;0.30;0.30;;;7.30;99.90;;;7.06;91.30;99769.63;4971095;28;20212;-74
2022/04/19 00:18:09;;;;;;;0.30;0.30;;;7.40;99.90;;;7.14;89.92;99769.69;4972372;28;20204;-74
2022/04/19 00:20:39;;;;;;;0.30;0.30;;;7.40;99.90;;;7.18;90.86;99782.03;4966910;28;20213;-74
2022/04/19 00:23:13;;;;;;;0.25;0.25;;;;;;;7.13;91.61;99781.09;4966724;28;20213;-74
2022/04/19 00:25:45;;;;;;;0.30;0.30;;;7.50;99.90;;;7.15;91.39;99779.34;4967990;28;20204;-74
2022/04/19 00:28:14;;;;;;;0.30;0.30;;;7.40;99.90;;;6.88;91.82;99787.78;4971803;28;20197;-76
2022/04/19 00:30:43;;;;;;;0.20;0.20;;;7.10;99.90;;;6.31;94.54;99748.41;4955454;28;20208;-76
2022/04/19 00:33:11;;;;;;;0.30;0.30;;;7.10;99.90;;;6.46;95.00;99779.25;4949475;28;20241;-75
2022/04/19 00:35:39;;;;;;;0.20;0.20;;;;;;;6.88;93.68;99831.56;4952590;28;20208;-75
2022/04/19 00:38:08;;;;;;;0.30;0.30;;;7.00;99.90;;;7.11;90.93;99838.03;4953012;28;20200;-76
2022/04/19 00:40:36;;;;;;;0.20;0.20;;;7.00;99.90;;;7.22;89.44;99822.38;4951356;28;20221;-76
2022/04/19 00:43:05;;;;;;;0.20;0.20;;;7.10;99.90;;;7.30;89.07;99816.34;4960375;28;20315;-76
2022/04/19 00:45:34;;;;;;;0.30;0.30;;;7.20;99.90;;;7.19;87.88;99788.16;4963143;28;20233;-75
2022/04/19 00:48:03;;;;;;;0.30;0.30;;;7.20;99.90;;;7.11;89.08;99785.44;4957507;28;20209;-76
2022/04/19 00:50:34;;;;;;;0.30;0.30;;;7.20;99.90;;;6.42;92.86;99760.81;4953262;28;20298;-75
2022/04/19 00:53:04;;;;;;;0.20;0.20;;;7.10;99.90;;;6.40;94.82;99780.03;4954503;28;20245;-77
2022/04/19 00:55:32;;;;;;;0.20;0.20;;;6.90;99.90;;;6.45;94.69;99794.13;4927447;28;20567;-77
2022/04/19 00:58:00;;;;;;;0.30;0.30;;;6.90;99.90;;;6.74;93.20;99837.53;4963784;28;20220;-76
2022/04/19 01:00:29;;;;;;;0.20;0.20;;;6.90;99.90;;;6.70;94.36;99838.34;4940969;28;20225;-75
2022/04/19 01:03:09;;;;;;;0.30;0.30;;;;;;;6.68;95.05;99840.06;4965067;28;20578;-77
2022/04/19 01:05:38;;;;;;;0.30;0.30;;;7.00;99.90;;;6.49;97.16;99847.59;4959097;28;20212;-77
2022/04/19 01:08:11;;;;;;;0.20;0.20;;;6.90;99.90;;;6.21;99.00;99841.00;4941820;28;20211;-75
2022/04/19 01:10:44;;;;;;;0.30;0.30;;;6.90;99.90;;;6.32;99.88;99865.69;4969292;28;20216;-76
2022/04/19 01:13:19;;;;;;;0.30;0.30;;;;;;;6.12;100.00;99873.22;4959234;28;20232;-76
2022/04/19 01:15:56;;;;;;;0.30;0.30;;;;;;;6.11;100.00;99889.84;4942183;28;20227;-77
2022/04/19 01:18:25;;;;;;;0.30;0.30;;;6.60;99.90;;;6.14;100.00;99917.88;4937678;28;20219;-77
2022/04/19 01:21:04;;;;;;;0.20;0.20;;;6.60;99.90;;;6.16;100.00;99924.94;4939905;29;20221;-75
2022/04/19 01:23:32;;;;;;;0.20;0.20;;;6.60;99.90;;;6.17;100.00;99931.94;4954349;28;20232;-78
2022/04/19 01:26:00;;;;;;;0.25;0.25;;;6.60;99.90;;;6.31;100.00;99947.97;4981129;28;20217;-76
2022/04/19 01:28:31;;;;;;;0.30;0.30;;;;;;;6.08;100.00;99935.28;4960721;28;20240;-76
2022/04/19 01:31:03;;;;;;;0.30;0.30;;;6.50;99.90;;;6.19;100.00;99951.25;4956269;28;20205;-77
2022/04/19 01:33:43;;;;;;;0.30;0.30;;;;;;;6.21;100.00;99957.41;4957793;28;20255;-76
2022/04/19 01:36:12;;;;;;;0.30;0.30;;;;;;;6.15;100.00;99938.91;4958115;28;20197;-74
2022/04/19 01:38:48;;;;;;;0.20;0.20;;;6.50;99.90;;;6.10;100.00;99935.31;4958232;28;20229;-74
2022/04/19 01:41:19;;;;;;;0.30;0.30;;;6.50;99.90;;;6.10;100.00;99944.09;4970081;28;20213;-74
2022/04/19 01:43:52;;;;;;;0.30;0.30;;;6.50;99.90;;;6.08;100.00;99944.91;4963351;28;20209;-73
2022/04/19 01:46:19;;;;;;;0.20;0.20;;;6.50;99.90;;;6.03;100.00;99942.19;4957315;28;20209;-74
2022/04/19 01:48:49;;;;;;;0.20;0.20;;;6.50;99.90;;;5.97;100.00;99944.69;4936493;28;20236;-74
2022/04/19 01:51:20;;;;;;;0.20;0.20;;;6.50;99.90;;;5.90;100.00;99942.81;4940856;28;20582;-74
2022/04/19 01:53:49;;;;;;;0.30;0.30;;;6.40;99.90;;;5.91;100.00;99944.59;4959322;28;20229;-74
2022/04/19 01:56:19;;;;;;;0.20;0.20;;;6.30;99.90;;;6.02;100.00;99961.44;4949580;28;20202;-74
2022/04/19 01:58:55;;;;;;;0.20;0.20;;;6.30;99.90;;;6.14;100.00;99970.41;4973160;28;20233;-76
2022/04/19 02:01:38;;;;;;;0.30;0.30;;;6.40;99.90;;;6.15;100.00;99959.03;4948320;28;20573;-74
2022/04/19 02:04:08;;;;;;;0.20;0.20;;;;;;;6.02;100.00;99950.94;4972973;28;20209;-75
2022/04/19 02:06:36;;;;;;;0.30;0.30;;;;;;;6.02;100.00;99940.44;4951993;28;20212;-75
2022/04/19 02:09:04;;;;;;;0.20;0.20;;;6.30;99.90;;;6.04;99.83;99938.72;4962244;28;20236;-75
2022/04/19 02:11:32;;;;;;;0.20;0.20;;;6.30;99.90;;;6.27;97.12;99954.91;4971808;28;20662;-75
2022/04/19 02:14:16;;;;;;;0.20;0.20;;;6.30;99.90;;;6.27;95.98;99933.00;4979044;28;20220;-75
2022/04/19 02:16:45;;;;;;;0.20;0.20;;;6.30;99.90;;;6.01;97.10;99906.28;4971982;28;20213;-76
2022/04/19 02:19:16;;;;;;;0.30;0.30;;;6.20;99.90;;;5.99;97.55;99906.25;4959438;28;20244;-76
2022/04/19 02:21:45;;;;;;;0.30;0.30;;;6.20;99.90;;;5.88;97.68;99897.25;4952446;28;20217;-77
2022/04/19 02:24:13;;;;;;;0.20;0.20;;;6.10;99.90;;;5.92;97.07;99906.09;4971911;28;20209;-74
2022/04/19 02:26:42;;;;;;;0.30;0.30;;;6.10;99.90;;;5.88;97.07;99897.25;4940888;28;20236;-74
2022/04/19 02:29:11;;;;;;;0.30;0.30;;;6.10;99.90;;;6.07;96.47;99930.00;4953912;28;20240;-76
2022/04/19 02:31:45;;;;;;;0.30;0.30;;;6.10;99.90;;;5.92;98.00;99927.09;4974232;28;20236;-75
2022/04/19 02:34:15;;;;;;;0.30;0.30;;;;;;;5.62;99.43;99909.84;4974740;28;20236;-75
2022/04/19 02:36:44;;;;;;;0.30;0.30;;;;;;;5.50;100.00;99906.97;4974254;28;20213;-75
2022/04/19 02:39:12;;;;;;;0.30;0.30;;;5.90;99.90;;;5.52;100.00;99912.25;4953417;28;20229;-74
2022/04/19 02:41:40;;;;;;;0.30;0.30;;;5.80;99.90;;;5.51;100.00;99926.22;4939935;28;20218;-74
2022/04/19 02:44:09;;;;;;;0.20;0.20;;;5.80;99.90;;;5.51;100.00;99929.72;4971896;28;20201;-74
2022/04/19 02:46:38;;;;;;;0.30;0.30;;;5.80;99.90;;;5.39;100.00;99929.47;4954260;28;20213;-74
2022/04/19 02:49:09;;;;;;;0.20;0.20;;;5.70;99.90;;;5.30;100.00;99942.38;4962246;28;20225;-74
2022/04/19 02:51:38;;;;;;;0.20;0.20;;;;;;;5.12;100.00;99938.47;4954505;28;20210;-74
2022/04/19 02:54:05;;;;;;;0.30;0.30;;;5.60;99.90;;;4.81;100.00;99931.63;4961262;28;20245;-73
2022/04/19 02:56:33;;;;;;;0.30;0.30;;;5.30;99.90;;;4.61;100.00;99938.13;4950075;28;20209;-74
2022/04/19 02:59:02;;;;;;;0.20;0.20;;;5.20;99.90;;;4.72;100.00;99943.63;4972197;28;20235;-74
2022/04/19 03:01:30;;;;;;;0.20;0.20;;;;;;;4.87;100.00;99979.78;4971926;28;20193;-74
2022/04/19 03:03:59;;;;;;;0.30;0.30;;;5.10;99.90;;;5.04;100.00;100010.78;4950034;28;20216;-75
2022/04/19 03:06:27;;;;;;;0.30;0.30;;;5.20;99.90;;;4.98;100.00;100018.50;4971318;28;20212;-76
2022/04/19 03:08:55;;;;;;;0.22;0.22;;;5.20;99.90;;;4.88;100.00;100007.75;4950406;28;20244;-75
2022/04/19 03:11:23;;;;;;;0.30;0.30;;;5.10;99.90;;;4.99;100.00;100020.28;4971799;28;20223;-75
2022/04/19 03:13:58;;;;;;;0.30;0.30;;;5.30;99.90;;;4.84;100.00;100009.41;4965964;28;20229;-75
2022/04/19 03:16:27;;;;;;;0.30;0.30;;;5.10;99.90;;;5.01;100.00;100036.03;4957010;28;20202;-76
2022/04/19 03:18:55;;;;;;;0.30;0.30;;;5.10;99.90;;;4.49;100.00;100003.25;4947822;28;20569;-75
2022/04/19 03:21:24;;;;;;;0.30;0.30;;;5.10;99.90;;;4.46;100.00;100011.94;4950502;28;20664;-75
2022/04/19 03:29:24;;;;;;;0.30;0.30;;;;;;;4.83;100.00;100052.16;4956408;28;20236;-75
2022/04/19 03:31:54;;;;;;;0.30;0.30;;;;;;;4.58;100.00;100031.41;4955736;28;20204;-76
2022/04/19 03:34:23;;;;;;;0.30;0.30;;;5.00;99.90;;;4.74;100.00;100049.31;4964356;28;20232;-75
2022/04/19 03:36:52;;;;;;;0.30;0.30;;;4.90;99.90;;;4.85;100.00;100060.97;4953678;28;20212;-76
2022/04/19 03:39:21;;;;;;;0.30;0.30;;;5.00;99.90;;;4.90;100.00;100066.31;4951093;28;20229;-75
2022/04/19 03:41:49;;;;;;;0.20;0.20;;;;;;;4.66;100.00;100050.84;4969145;28;20222;-75
2022/04/19 03:44:17;;;;;;;0.30;0.30;;;4.90;99.90;;;4.50;100.00;100036.47;4980782;28;20212;-75
2022/04/19 03:49:32;;;;;;;0.30;0.30;;;4.90;99.90;;;4.91;100.00;100079.44;4959015;28;20222;-74
2022/04/19 03:52:01;;;;;;;0.30;0.30;;;5.00;99.90;;;4.96;100.00;100080.47;4961892;28;20224;-74
2022/04/19 03:54:31;;;;;;;0.30;0.30;;;5.00;99.90;;;4.96;100.00;100072.59;4951898;28;20260;-75
2022/04/19 03:56:59;;;;;;;0.30;0.30;;;5.00;99.90;;;4.76;100.00;100068.56;4950185;28;20213;-75
2022/04/19 03:59:27;;;;;;;0.30;0.30;;;5.00;99.90;;;4.50;100.00;100070.50;4988183;28;20229;-75
2022/04/19 04:01:55;;;;;;;0.30;0.30;;;4.90;99.90;;;4.71;100.00;100088.53;4950220;28;20210;-75
2022/04/19 04:04:30;;;;;;;0.30;0.30;;;4.90;99.90;;;4.68;100.00;100101.53;4952833;28;20201;-75
2022/04/19 04:07:00;;;;;;;0.30;0.30;;;;;;;4.55;100.00;100104.66;4949524;28;20204;-76
2022/04/19 04:09:32;;;;;;;0.30;0.30;;;4.80;99.90;;;4.46;100.00;100103.56;4948433;28;20739;-75
2022/04/19 04:12:09;;;;;;;0.30;0.30;;;4.70;99.90;;;4.27;100.00;100105.63;4975081;28;20219;-73
2022/04/19 04:14:40;;;;;;;0.30;0.30;;;4.70;99.90;;;4.17;100.00;100096.63;4964068;28;20225;-73
2022/04/19 04:17:10;;;;;;;0.30;0.30;;;4.70;99.90;;;4.11;100.00;100105.16;4971745;28;20212;-74
2022/04/19 04:19:38;;;;;;;1.48;1.48;;;4.60;99.90;;;4.02;100.00;100097.06;4953698;28;20237;-74
2022/04/19 04:22:06;;;;;;;0.30;0.30;;;4.50;99.90;;;3.83;100.00;100098.19;4954280;28;20207;-73
2022/04/19 04:24:34;;;;;;;0.30;0.30;;;4.50;99.90;;;3.79;100.00;100096.31;4958472;28;20205;-74
2022/04/19 04:27:02;;;;;;;0.30;0.30;;;4.40;99.90;;;3.86;100.00;100108.75;4959645;28;20196;-74
2022/04/19 04:29:32;;;;;;;0.30;0.30;;;4.40;99.90;;;3.79;100.00;100104.16;4957747;28;20225;-74
2022/04/19 04:32:00;;;;;;;0.30;0.30;;;4.30;99.90;;;3.78;100.00;100114.59;4958501;28;20208;-74
2022/04/19 04:34:29;;;;;;;0.40;0.40;;;4.30;99.90;;;3.64;100.00;100108.03;4962451;28;20603;-74
2022/04/19 04:36:58;;;;;;;0.30;0.30;;;4.20;99.90;;;3.64;100.00;100118.50;4956997;28;20220;-74
2022/04/19 04:39:27;;;;;;;0.40;0.40;;;;;;;3.61;100.00;100123.63;4963401;28;20291;-75
2022/04/19 04:42:15;;;;;;;0.30;0.30;;;4.10;99.90;;;3.52;100.00;100134.69;4925818;28;20213;-75
2022/04/19 04:44:44;;;;;;;0.30;0.30;;;4.10;99.90;;;3.71;100.00;100157.06;4961828;28;20221;-76
2022/04/19 04:50:03;;;;;;;0.40;0.40;;;4.20;99.90;;;3.77;100.00;100183.44;4961602;28;20243;-75
2022/04/19 04:52:32;;;;;;;0.30;0.30;;;4.20;99.90;;;3.87;100.00;100188.13;4953965;28;20202;-76
2022/04/19 04:55:00;;;;;;;0.40;0.40;;;4.20;99.90;;;3.98;100.00;100204.19;4949693;28;20244;-73
2022/04/19 04:57:33;;;;;;;0.40;0.40;;;4.30;99.90;;;4.00;100.00;100197.28;4967867;28;20706;-74
2022/04/19 05:00:04;;;;;;;0.30;0.30;;;4.30;99.90;;;3.69;100.00;100185.78;4968820;28;20217;-75
2022/04/19 05:02:48;;;;;;;0.40;0.40;;;4.20;99.90;;;3.84;100.00;100204.59;4958655;28;20679;-78
2022/04/19 05:05:17;;;;;;;0.40;0.40;;;;;;;3.86;100.00;100208.16;4956729;28;20205;-79
2022/04/19 05:07:45;;;;;;;0.30;0.30;;;;;;;3.84;100.00;100214.16;4957311;28;20231;-81
2022/04/19 05:10:14;;;;;;;0.30;0.30;;;4.10;99.90;;;3.88;100.00;100223.91;4971042;28;20233;-76
2022/04/19 05:12:42;;;;;;;0.40;0.40;;;4.10;99.90;;;3.99;100.00;100247.81;4954263;28;20210;-78
2022/04/19 05:15:12;;;;;;;0.40;0.40;;;4.10;99.90;;;3.93;100.00;100239.78;4952744;28;20229;-77
2022/04/19 05:17:41;;;;;;;0.30;0.30;;;4.10;99.90;;;3.92;100.00;100244.13;4953946;28;20224;-77
2022/04/19 05:20:09;;;;;;;0.40;0.40;;;4.20;99.90;;;4.10;100.00;100268.25;4987342;23;20239;-75
2022/04/19 05:22:40;;;;;;;0.30;0.30;;;4.10;99.90;;;4.26;100.00;100264.41;5012335;28;20204;-74
2022/04/19 05:25:11;;;;;;;0.30;0.30;;;4.30;99.90;;;4.30;100.00;100265.38;5025204;28;20226;-75
2022/04/19 05:27:39;;;;;;;0.40;0.40;;;4.30;99.90;;;4.40;100.00;100264.81;5015720;28;20661;-75
2022/04/19 05:30:08;;;;;;;0.65;0.65;;;4.40;99.90;;;4.53;100.00;100271.31;5011708;28;20251;-77
2022/04/19 05:32:36;;;;;;;0.30;0.30;;;4.50;99.90;;;4.59;100.00;100253.19;5008428;28;20699;-79
2022/04/19 05:35:08;;;;;;;0.30;0.30;;;4.60;99.90;;;4.61;100.00;100260.25;5003664;28;20243;-77
2022/04/19 05:37:37;;;;;;;0.20;0.20;;;4.60;99.90;;;4.56;100.00;100253.97;5011162;28;20226;-77
2022/04/19 05:40:07;;;;;;;0.40;0.40;;;4.60;99.90;;;4.55;100.00;100259.16;4990699;28;20235;-78
2022/04/19 05:42:37;;;;;;;0.30;0.30;;;;;;;4.59;100.00;100261.94;4992694;28;20199;-78
2022/04/19 05:45:06;;;;;;;0.30;0.30;;;4.60;99.90;;;4.67;100.00;100270.91;4996772;28;20192;-78
2022/04/19 05:47:35;;;;;;;0.30;0.30;;;4.60;99.90;;;4.71;100.00;100280.63;4989159;28;20208;-78
2022/04/19 05:50:03;;;;;;;0.30;0.30;;;4.70;99.90;;;4.83;100.00;100298.44;4992681;28;20225;-78
2022/04/19 05:52:32;;;;;;;0.30;0.30;;;4.80;99.90;;;4.92;100.00;100310.91;4994591;28;20208;-79
2022/04/19 05:55:01;;;;;;;0.30;0.30;;;4.80;99.90;;;4.92;100.00;100311.81;4954682;28;20239;-77
2022/04/19 05:57:29;;;;;;;0.30;0.30;;;4.90;99.90;;;4.90;100.00;100292.53;5006247;28;20201;-78
2022/04/19 05:59:56;;;;;;;0.30;0.30;;;4.90;99.90;;;4.99;100.00;100302.41;5000695;28;20220;-78
2022/04/19 06:05:20;;;;;;;0.30;0.30;;;5.00;99.90;;;5.33;100.00;100306.91;5008609;28;20204;-78
2022/04/19 06:07:52;;;;;;;0.30;0.30;;;5.10;99.90;;;5.42;100.00;100301.91;4991297;28;20204;-78
2022/04/19 06:10:20;;;;;;;0.30;0.30;;;5.20;99.90;;;5.39;100.00;100294.84;4991201;28;20243;-79
2022/04/19 06:12:52;;;;;;;0.30;0.30;;;5.20;99.90;;;5.46;100.00;100288.03;5007526;28;20203;-80
2022/04/19 06:15:21;;;;;;;0.30;0.30;;;5.40;99.90;;;5.61;100.00;100308.53;4997191;28;20739;-78
2022/04/19 06:17:50;;;;;;;0.30;0.30;;;;;;;5.71;100.00;100313.19;4988590;28;20206;-78
2022/04/19 06:20:38;;;;;;;0.30;0.30;;;;;;;5.76;100.00;100314.19;5012795;28;20208;-78
2022/04/19 06:23:06;;;;;;;0.30;0.30;;;5.50;99.90;;;5.93;100.00;100325.16;4996955;28;20200;-80
2022/04/19 06:25:35;;;;;;;0.20;0.20;;;;;;;5.86;100.00;100312.69;4997307;28;20211;-77
2022/04/19 06:28:03;;;;;;;0.30;0.30;;;5.70;99.90;;;5.99;100.00;100320.06;4993834;28;20203;-78
2022/04/19 06:30:46;;;;;;;0.30;0.30;;;;;;;6.10;100.00;100322.13;4992903;28;20443;-77
2022/04/19 06:33:19;;;;;;;0.30;0.30;;;;;;;6.22;100.00;100320.66;4982106;28;20205;-79
2022/04/19 06:35:47;;;;;;;0.30;0.30;;;5.80;99.90;;;6.46;100.00;100342.25;4996009;28;20230;-81
2022/04/19 06:38:16;;;;;;;0.55;0.55;;;;;;;6.58;100.00;100316.28;5009232;28;20658;-79
2022/04/19 06:40:45;;;;;;;0.30;0.30;;;6.20;99.90;;;6.75;100.00;100308.78;4987327;28;20196;-80
2022/04/19 06:43:13;;;;;;;0.30;0.30;;;;;;;7.03;100.00;100308.53;4986095;28;20208;-80
2022/04/19 06:46:05;;;;;;;0.30;0.30;;;;;;;7.16;98.67;100259.72;4992429;28;20211;-79
2022/04/19 06:48:34;;;;;;;0.30;0.30;;;;;;;7.32;98.02;100253.00;4996036;28;20220;-80
2022/04/19 06:51:09;;;;;;;0.30;0.30;;;6.60;99.90;;;7.44;96.85;100237.44;4995955;28;20200;-80
2022/04/19 06:53:58;;;;;;;0.30;0.30;;;;;;;7.67;95.79;100238.75;4991209;28;20211;-77
2022/04/19 06:56:38;;;;;;;0.20;0.20;;;7.00;99.90;;;7.83;93.54;100210.09;4994236;28;20219;-77
2022/04/19 06:59:08;;;;;;;0.20;0.20;;;;;;;8.00;93.16;100204.22;5008525;28;20232;-79
2022/04/19 07:01:40;;;;;;;0.30;0.30;;;7.30;99.90;;;8.34;92.12;100210.91;5004985;28;20212;-78
2022/04/19 07:04:29;;;;;;;0.60;0.60;;;;;;;8.50;89.96;100175.13;4943949;29;20219;-77
2022/04/19 07:06:59;;;;;;;0.30;0.30;;;;;;;8.66;89.42;100150.72;4974815;28;20201;-79
2022/04/19 07:09:27;;;;;;;0.20;0.20;;;7.50;99.90;;;8.78;88.76;100131.53;4995814;28;20235;-77
2022/04/19 07:11:56;;;;;;;0.20;0.20;;;7.70;99.90;;;8.86;86.45;100108.78;5008780;28;20208;-77
2022/04/19 07:14:27;;;;;;;0.20;0.20;;;7.80;99.90;;;9.20;86.28;100114.41;4993495;28;20204;-77
2022/04/19 07:16:58;;;;;;;0.20;0.20;;;8.00;99.90;;;9.29;85.18;100091.63;5005508;28;20212;-78
2022/04/19 07:28:04;;;;;;;0.30;0.30;;;8.90;99.90;;;9.71;84.99;100061.16;5013063;28;20678;-77
2022/04/19 07:30:43;;;;;;;0.20;0.20;;;9.00;99.90;;;9.82;84.58;100048.91;4997572;28;20566;-76
2022/04/19 07:33:16;;;;;;;0.20;0.20;;;9.90;99.90;;;10.07;84.34;100054.31;4994027;28;20576;-80
2022/04/19 07:35:46;;;;;;;0.20;0.20;;;;;;;10.16;83.99;100057.88;4989162;28;20239;-77
2022/04/19 07:38:14;;;;;;;0.25;0.25;;;9.60;99.90;;;10.26;82.92;100030.66;5009157;28;20220;-78
2022/04/19 07:41:02;;;;;;;0.20;0.20;;;9.70;99.90;;;10.42;82.17;100026.34;5010709;28;20215;-76
2022/04/19 07:43:32;;;;;;;0.20;0.20;;;9.90;99.90;;;10.55;82.55;100022.84;4981007;28;20199;-77
2022/04/19 07:46:04;;;;;;;0.20;0.20;;;10.00;99.90;;;10.70;80.15;99984.09;4995000;28;20212;-77
2022/04/19 07:48:32;;;;;;;0.10;0.10;;;10.20;99.90;;;10.78;80.93;99975.28;4998436;28;20223;-77
2022/04/19 07:51:01;;;;;;;0.20;0.20;;;10.40;99.90;;;11.08;80.98;99992.91;5017669;28;20220;-77
2022/04/19 07:53:29;;;;;;;0.20;0.20;;;10.50;99.90;;;11.08;80.11;99963.81;4994466;28;20200;-79
2022/04/19 07:55:57;;;;;;;0.20;0.20;;;10.70;99.90;;;11.34;79.55;99969.09;4995504;28;20703;-78
2022/04/19 07:58:26;;;;;;;0.20;0.20;;;11.20;99.90;;;11.41;79.07;99954.94;4990314;28;20211;-78
2022/04/19 08:00:55;;;;;;;0.20;0.20;;;11.20;99.90;;;11.91;79.09;99977.81;5008647;28;20676;-77
2022/04/19 08:03:24;;;;;;;0.40;0.40;;;;;;;12.16;78.53;99968.00;4994984;28;20219;-77
2022/04/19 08:05:52;;;;;;;0.20;0.20;;;11.70;99.90;;;11.58;77.94;99888.69;4993674;28;20204;-77
2022/04/19 08:08:22;;;;;;;2.88;2.00;;;;;;;12.01;77.47;99912.41;5016070;23;20222;-79
2022/04/19 08:10:50;;;;;;;0.20;0.20;;;12.10;99.90;;;12.08;76.85;99893.81;4982807;28;20207;-77
2022/04/19 08:13:19;;;;;;;0.20;0.20;;;;;;;12.69;76.63;99930.53;4989412;28;20230;-77
2022/04/19 08:15:56;;;;;;;0.20;0.20;;;12.30;99.90;;;12.22;74.31;99829.25;4979679;28;20234;-78
2022/04/19 08:18:49;;;;;;;0.20;0.20;;;12.50;99.90;;;12.43;74.08;99827.28;5051032;23;20243;-77
2022/04/19 08:21:17;;;;;;;0.20;0.20;;;12.50;99.90;;;12.67;73.81;99826.22;4974919;28;20203;-77
2022/04/19 08:23:46;;;;;;;0.20;0.20;;;12.70;99.90;;;12.81;73.74;99816.34;5007856;28;20212;-77
2022/04/19 08:26:18;;;;;;;0.20;0.20;;;12.70;99.90;;;12.77;72.84;99782.78;4992020;28;20238;-77
2022/04/19 08:28:47;;;;;;;0.20;0.20;;;12.90;99.90;;;13.18;72.72;99807.16;4994657;28;20608;-77
2022/04/19 08:31:16;;;;;;;0.20;0.20;;;13.10;99.90;;;12.88;72.21;99758.78;5023050;28;20200;-77
2022/04/19 08:33:45;;;;;;;0.20;0.20;;;;;;;13.22;72.26;99766.41;5013576;28;20290;-77
2022/04/19 08:36:20;;;;;;;0.10;0.10;;;13.30;99.90;;;13.57;69.92;99744.69;5017580;28;20734;-78
2022/04/19 08:38:50;;;;;;;0.10;0.10;;;13.40;99.90;;;13.99;69.04;99736.06;5010621;28;20605;-77
2022/04/19 08:41:22;;;;;;;0.10;0.10;;;13.80;99.90;;;13.90;69.96;99717.63;5012591;28;20206;-78
2022/04/19 08:43:55;;;;;;;0.10;0.10;;;14.00;99.90;;;14.74;67.71;99745.47;5014854;28;20238;-79
2022/04/19 08:46:25;;;;;;;0.10;0.10;;;14.40;99.90;;;14.46;66.49;99659.09;5020463;28;20199;-77
2022/04/19 08:49:02;;;;;;;0.10;0.10;;;14.70;99.90;;;14.21;67.40;99640.88;5025500;28;20224;-78
2022/04/19 08:51:36;;;;;;;0.10;0.10;;;14.60;99.90;;;14.47;67.11;99653.75;5018102;28;20218;-78
2022/04/19 08:59:41;;;;;;;0.10;0.10;;;14.90;99.90;;;14.77;65.55;99606.13;5012559;28;20239;-79
2022/04/19 09:02:21;;;;;;;0.20;0.20;;;15.20;99.90;;;14.70;67.26;99603.59;5024786;28;20207;-78
2022/04/19 09:04:53;;;;;;;0.10;0.10;;;15.00;99.90;;;14.97;66.95;99615.44;5008058;28;20214;-81
2022/04/19 09:07:36;;;;;;;0.20;0.20;;;15.30;99.90;;;15.09;65.40;99600.97;5019002;28;20215;-78
2022/04/19 09:10:06;;;;;;;0.20;0.20;;;15.30;99.90;;;15.07;64.88;99576.19;5030118;28;20231;-77
2022/04/19 09:12:34;;;;;;;0.20;0.20;;;15.40;99.90;;;15.16;64.86;99565.31;5019076;28;20211;-78
2022/04/19 09:15:06;;;;;;;0.10;0.10;;;15.40;99.90;;;14.53;63.62;99438.13;4994062;28;20208;-77
2022/04/19 09:17:42;;;;;;;1.65;0.65;;;15.30;99.90;;;15.26;64.73;99553.53;5026370;28;20242;-77
2022/04/19 09:20:19;;;;;;;0.75;0.75;;;15.30;99.90;;;15.28;65.27;99550.81;5005726;28;20255;-79
2022/04/19 09:23:00;;;;;;;0.10;0.10;;;15.80;99.90;;;15.57;65.06;99553.69;5026340;28;20210;-79
2022/04/19 09:25:29;;;;;;;0.10;0.10;;;15.80;99.90;;;15.71;63.55;99516.03;5026709;28;20670;-78
2022/04/19 09:27:58;;;;;;;0.10;0.10;;;16.10;99.90;;;15.89;62.43;99499.53;5014871;28;20215;-78
2022/04/19 09:30:30;;;;;;;0.10;0.10;;;16.30;99.90;;;16.21;61.48;99460.41;5025423;28;20731;-77
2022/04/19 09:33:31;;;;;;;0.00;0.00;;;16.80;99.90;;;16.03;62.86;99458.28;5014868;28;20211;-76
2022/04/19 09:36:03;;;;;;;0.10;0.10;;;16.90;99.90;;;15.88;62.71;99422.28;5019820;28;20224;-77
2022/04/19 09:38:40;;;;;;;0.10;0.10;;;16.80;99.90;;;16.17;61.94;99440.97;5024587;28;20239;-77
2022/04/19 09:41:11;;;;;;;0.10;0.10;;;16.70;99.90;;;16.38;63.06;99444.78;5017359;28;20601;-77
2022/04/19 09:44:12;;;;;;;0.00;0.00;;;17.20;99.90;;;16.48;62.93;99456.06;5017223;28;20203;-77
2022/04/19 09:47:08;;;;;;;0.10;0.10;;;17.30;99.90;;;16.44;62.32;99430.38;5015612;28;20612;-77
2022/04/19 09:49:51;;;;;;;0.30;0.30;;;17.30;99.90;;;16.97;63.36;99474.13;5013465;28;20268;-77
2022/04/19 09:52:22;;;;;;;0.10;0.10;;;17.50;99.90;;;16.93;60.69;99411.94;5029812;28;20207;-77
2022/04/19 09:55:07;;;;;;;0.10;0.10;;;17.50;99.90;;;16.83;60.67;99366.88;5032897;28;20554;-77
2022/04/19 09:57:38;;;;;;;0.10;0.10;;;17.70;99.90;;;17.26;61.10;99409.94;5011512;28;20706;-79
2022/04/19 10:00:12;;;;;;;0.20;0.20;;;18.10;99.90;;;16.86;60.09;99314.25;5029919;28;20231;-78
2022/04/19 10:08:24;;;;;;;0.10;0.10;;;18.90;99.90;;;17.99;59.19;99366.31;5022131;28;20219;-78
2022/04/19 10:10:56;;;;;;;0.10;0.10;;;18.90;99.90;;;17.60;57.20;99232.31;5014676;28;20212;-78
2022/04/19 10:13:24;;;;;;;0.32;0.32;;;18.90;99.90;;;18.07;57.95;99301.81;5025870;28;20207;-79
2022/04/19 10:15:52;;;;;;;0.00;0.00;;;;;;;17.53;56.80;99185.34;5023685;28;20216;-80
2022/04/19 10:18:21;;;;;;;0.10;0.10;;;18.80;99.90;;;17.47;56.26;99175.78;5013239;28;20214;-78
2022/04/19 10:20:53;;;;;;;0.10;0.10;;;18.50;99.90;;;18.04;57.23;99249.31;5024774;28;20211;-78
2022/04/19 10:23:33;;;;;;;0.20;0.20;;;18.50;99.90;;;18.35;56.51;99242.72;5009107;28;20214;-81
2022/04/19 10:26:16;;;;;;;0.10;0.10;;;19.00;99.90;;;18.74;55.95;99266.97;5030465;28;20203;-78
2022/04/19 10:28:46;;;;;;;0.03;0.03;;;19.30;99.90;;;18.47;54.46;99170.81;5029215;28;20235;-78
2022/04/19 10:31:31;;;;;;;0.13;0.13;;;19.40;99.90;;;18.92;55.34;99227.81;5025185;28;20207;-80
2022/04/19 10:34:04;;;;;;;0.10;0.10;;;19.60;99.90;;;19.09;53.86;99195.78;5030529;28;20206;-78
2022/04/19 10:36:42;;;;;;;0.52;0.52;;;19.80;99.90;;;19.19;52.45;99154.22;5011247;28;20224;-79
2022/04/19 10:39:13;;;;;;;0.10;0.10;;;20.10;99.90;;;18.47;53.11;99025.41;5030551;28;20223;-80
2022/04/19 10:42:02;;;;;;;0.10;0.10;;;19.90;99.50;;;18.66;52.11;99044.19;5027805;28;20207;-78
2022/04/19 10:44:38;;;;;;;0.00;0.00;;;19.70;98.60;;;18.97;52.20;99073.97;5014480;28;20196;-78
2022/04/19 10:47:14;;;;;;;0.00;0.00;;;19.60;98.80;;;19.34;51.96;99096.34;5023393;28;20207;-77
2022/04/19 10:49:52;;;;;;;0.00;0.00;;;19.80;97.80;;;20.07;53.25;99168.78;5020884;28;20234;-79
2022/04/19 10:52:39;;;;;;;0.10;0.10;;;20.40;99.90;;;19.88;50.29;99065.13;4998965;28;20696;-78
2022/04/19 10:55:11;;;;;;;0.10;0.10;;;20.60;96.90;;;19.72;50.19;99023.00;5013775;28;20204;-78
2022/04/19 10:58:09;;;;;;;0.00;0.00;;;20.70;95.70;;;19.00;49.86;98925.63;5018016;28;20230;-78
2022/04/19 11:00:59;;;;;;;0.00;0.00;;;20.00;95.50;;;19.36;50.60;98968.47;5019287;28;20207;-78
2022/04/19 11:03:35;;;;;;;0.00;0.00;;;20.10;94.40;;;19.84;49.94;99013.44;5032443;28;20203;-79
2022/04/19 11:06:09;;;;;;;0.00;0.00;;;20.40;95.20;;;19.79;50.63;98980.63;5013660;28;20214;-78
2022/04/19 11:08:37;;;;;;;0.05;0.05;;;;;;;19.99;51.63;99025.22;5011969;28;20235;-77
2022/04/19 11:11:20;;;;;;;0.00;0.00;;;20.80;95.80;;;19.86;49.74;98939.13;5019956;28;20211;-78
2022/04/19 11:14:40;;;;;;;0.10;0.10;;;21.10;93.70;;;20.54;49.99;98998.16;5030721;28;20202;-78
2022/04/19 11:17:29;;;;;;;1.25;0.90;;;21.10;92.30;;;19.80;47.75;98838.38;5005893;28;20228;-78
2022/04/19 11:20:14;;;;;;;0.10;0.10;;;21.10;90.50;;;20.18;48.27;98889.09;4999923;28;20238;-78
2022/04/19 11:22:47;;;;;;;0.00;0.00;;;21.10;91.10;;;20.32;50.13;98923.25;5023238;28;20210;-78
2022/04/19 11:25:35;;;;;;;0.10;0.10;;;21.00;93.50;;;20.12;50.70;98893.00;5027366;28;20221;-78
2022/04/19 11:28:03;;;;;;;0.00;0.00;;;20.90;92.10;;;20.20;49.48;98878.28;5012812;28;20211;-79